sensor_id;sensor_type;location;lat;lon;timestamp;P1;durP1;ratioP1;P2;durP2;ratioP2
65545;SDS011;52177;55.968;37.498;2023-05-10T00:00:00;26.55;;;17.88;;
65545;SDS011;52177;55.968;37.498;2023-05-10T00:00:31;26.25;;;17.35;;
65545;SDS011;52177;55.968;37.498;2023-05-10T00:01:01;27.50;;;17.27;;
65545;SDS011;52177;55.968;37.498;2023-05-10T00:01:32;24.27;;;17.20;;
65545;SDS011;52177;55.968;37.498;2023-05-10T00:02:02;26.92;;;16.95;;
65545;SDS011;52177;55.968;37.498;2023-05-10T00:02:33;24.70;;;16.33;;
65545;SDS011;52177;55.968;37.498;2023-05-10T00:03:03;23.98;;;16.77;;
65545;SDS011;52177;55.968;37.498;2023-05-10T00:03:34;23.15;;;16.35;;
65545;SDS011;52177;55.968;37.498;2023-05-10T00:04:05;23.08;;;15.65;;
65545;SDS011;52177;55.968;37.498;2023-05-10T00:04:35;23.67;;;16.13;;
65545;SDS011;52177;55.968;37.498;2023-05-10T00:05:05;26.83;;;15.93;;
65545;SDS011;52177;55.968;37.498;2023-05-10T00:05:36;22.77;;;16.02;;
65545;SDS011;52177;55.968;37.498;2023-05-10T00:06:07;23.90;;;15.20;;
65545;SDS011;52177;55.968;37.498;2023-05-10T00:06:37;23.27;;;15.57;;
65545;SDS011;52177;55.968;37.498;2023-05-10T00:07:07;23.63;;;16.13;;
65545;SDS011;52177;55.968;37.498;2023-05-10T00:07:38;22.65;;;15.57;;
65545;SDS011;52177;55.968;37.498;2023-05-10T00:08:08;26.17;;;15.25;;
65545;SDS011;52177;55.968;37.498;2023-05-10T00:08:38;22.52;;;15.20;;
65545;SDS011;52177;55.968;37.498;2023-05-10T00:09:09;27.40;;;15.23;;
65545;SDS011;52177;55.968;37.498;2023-05-10T00:09:39;23.77;;;14.85;;
65545;SDS011;52177;55.968;37.498;2023-05-10T00:10:10;21.92;;;14.45;;
65545;SDS011;52177;55.968;37.498;2023-05-10T00:10:41;21.38;;;15.02;;
65545;SDS011;52177;55.968;37.498;2023-05-10T00:11:11;23.20;;;14.50;;
65545;SDS011;52177;55.968;37.498;2023-05-10T00:11:41;24.85;;;14.55;;
65545;SDS011;52177;55.968;37.498;2023-05-10T00:12:11;22.05;;;14.80;;
65545;SDS011;52177;55.968;37.498;2023-05-10T00:12:42;24.08;;;14.38;;
65545;SDS011;52177;55.968;37.498;2023-05-10T00:13:12;26.15;;;14.95;;
65545;SDS011;52177;55.968;37.498;2023-05-10T00:13:43;21.65;;;14.15;;
65545;SDS011;52177;55.968;37.498;2023-05-10T00:14:13;25.73;;;14.00;;
65545;SDS011;52177;55.968;37.498;2023-05-10T00:14:43;19.10;;;13.50;;
65545;SDS011;52177;55.968;37.498;2023-05-10T00:15:14;24.27;;;13.65;;
65545;SDS011;52177;55.968;37.498;2023-05-10T00:15:44;23.55;;;14.15;;
65545;SDS011;52177;55.968;37.498;2023-05-10T00:16:15;21.70;;;13.23;;
65545;SDS011;52177;55.968;37.498;2023-05-10T00:16:45;19.02;;;12.68;;
65545;SDS011;52177;55.968;37.498;2023-05-10T00:17:15;24.58;;;13.20;;
65545;SDS011;52177;55.968;37.498;2023-05-10T00:17:46;21.90;;;13.50;;
65545;SDS011;52177;55.968;37.498;2023-05-10T00:18:16;21.35;;;13.35;;
65545;SDS011;52177;55.968;37.498;2023-05-10T00:18:46;18.50;;;12.13;;
65545;SDS011;52177;55.968;37.498;2023-05-10T00:19:17;19.30;;;12.55;;
65545;SDS011;52177;55.968;37.498;2023-05-10T00:19:47;19.17;;;12.65;;
65545;SDS011;52177;55.968;37.498;2023-05-10T00:20:18;25.05;;;13.25;;
65545;SDS011;52177;55.968;37.498;2023-05-10T00:20:48;19.63;;;12.55;;
65545;SDS011;52177;55.968;37.498;2023-05-10T00:21:19;24.30;;;12.68;;
65545;SDS011;52177;55.968;37.498;2023-05-10T00:21:49;22.17;;;11.85;;
65545;SDS011;52177;55.968;37.498;2023-05-10T00:22:19;24.15;;;12.85;;
65545;SDS011;52177;55.968;37.498;2023-05-10T00:22:50;22.38;;;12.38;;
65545;SDS011;52177;55.968;37.498;2023-05-10T00:23:20;19.70;;;12.02;;
65545;SDS011;52177;55.968;37.498;2023-05-10T00:23:51;19.10;;;12.27;;
65545;SDS011;52177;55.968;37.498;2023-05-10T00:24:21;20.98;;;12.63;;
65545;SDS011;52177;55.968;37.498;2023-05-10T00:24:52;21.58;;;12.32;;
65545;SDS011;52177;55.968;37.498;2023-05-10T00:25:22;20.33;;;12.00;;
65545;SDS011;52177;55.968;37.498;2023-05-10T00:25:52;20.15;;;12.23;;
65545;SDS011;52177;55.968;37.498;2023-05-10T00:26:23;22.00;;;12.38;;
65545;SDS011;52177;55.968;37.498;2023-05-10T00:26:53;20.80;;;12.45;;
65545;SDS011;52177;55.968;37.498;2023-05-10T00:27:23;20.85;;;12.05;;
65545;SDS011;52177;55.968;37.498;2023-05-10T00:27:54;16.95;;;12.00;;
65545;SDS011;52177;55.968;37.498;2023-05-10T00:28:27;21.80;;;12.70;;
65545;SDS011;52177;55.968;37.498;2023-05-10T00:28:58;21.48;;;12.02;;
65545;SDS011;52177;55.968;37.498;2023-05-10T00:29:29;22.40;;;12.10;;
65545;SDS011;52177;55.968;37.498;2023-05-10T00:29:59;17.00;;;11.48;;
65545;SDS011;52177;55.968;37.498;2023-05-10T00:30:29;21.50;;;11.40;;
65545;SDS011;52177;55.968;37.498;2023-05-10T00:31:00;21.10;;;12.43;;
65545;SDS011;52177;55.968;37.498;2023-05-10T00:31:30;18.33;;;11.65;;
65545;SDS011;52177;55.968;37.498;2023-05-10T00:32:00;19.30;;;11.02;;
65545;SDS011;52177;55.968;37.498;2023-05-10T00:32:31;18.88;;;11.80;;
65545;SDS011;52177;55.968;37.498;2023-05-10T00:33:01;19.95;;;12.02;;
65545;SDS011;52177;55.968;37.498;2023-05-10T00:33:31;20.63;;;12.10;;
65545;SDS011;52177;55.968;37.498;2023-05-10T00:34:02;19.88;;;11.88;;
65545;SDS011;52177;55.968;37.498;2023-05-10T00:34:33;19.75;;;11.50;;
65545;SDS011;52177;55.968;37.498;2023-05-10T00:35:03;21.25;;;12.05;;
65545;SDS011;52177;55.968;37.498;2023-05-10T00:35:34;19.08;;;11.88;;
65545;SDS011;52177;55.968;37.498;2023-05-10T00:36:04;19.02;;;12.10;;
65545;SDS011;52177;55.968;37.498;2023-05-10T00:36:37;19.23;;;11.80;;
65545;SDS011;52177;55.968;37.498;2023-05-10T00:37:07;21.65;;;12.00;;
65545;SDS011;52177;55.968;37.498;2023-05-10T00:37:38;17.63;;;11.82;;
65545;SDS011;52177;55.968;37.498;2023-05-10T00:38:08;17.75;;;11.80;;
65545;SDS011;52177;55.968;37.498;2023-05-10T00:38:38;20.80;;;12.55;;
65545;SDS011;52177;55.968;37.498;2023-05-10T00:39:09;20.08;;;11.63;;
65545;SDS011;52177;55.968;37.498;2023-05-10T00:39:39;20.42;;;11.38;;
65545;SDS011;52177;55.968;37.498;2023-05-10T00:40:09;19.85;;;12.02;;
65545;SDS011;52177;55.968;37.498;2023-05-10T00:40:40;20.88;;;11.93;;
65545;SDS011;52177;55.968;37.498;2023-05-10T00:41:10;19.05;;;11.18;;
65545;SDS011;52177;55.968;37.498;2023-05-10T00:41:41;17.10;;;11.15;;
65545;SDS011;52177;55.968;37.498;2023-05-10T00:42:11;19.27;;;11.77;;
65545;SDS011;52177;55.968;37.498;2023-05-10T00:42:41;14.82;;;10.40;;
65545;SDS011;52177;55.968;37.498;2023-05-10T00:43:12;14.63;;;10.50;;
65545;SDS011;52177;55.968;37.498;2023-05-10T00:43:42;16.10;;;11.30;;
65545;SDS011;52177;55.968;37.498;2023-05-10T00:44:13;18.83;;;11.05;;
65545;SDS011;52177;55.968;37.498;2023-05-10T00:44:44;17.13;;;12.05;;
65545;SDS011;52177;55.968;37.498;2023-05-10T00:45:14;19.20;;;11.77;;
65545;SDS011;52177;55.968;37.498;2023-05-10T00:45:44;17.60;;;11.13;;
65545;SDS011;52177;55.968;37.498;2023-05-10T00:46:15;18.60;;;11.18;;
65545;SDS011;52177;55.968;37.498;2023-05-10T00:46:46;24.30;;;11.65;;
65545;SDS011;52177;55.968;37.498;2023-05-10T00:47:17;17.63;;;11.00;;
65545;SDS011;52177;55.968;37.498;2023-05-10T00:47:48;18.02;;;11.15;;
65545;SDS011;52177;55.968;37.498;2023-05-10T00:48:18;18.20;;;10.80;;
65545;SDS011;52177;55.968;37.498;2023-05-10T00:48:49;19.35;;;11.85;;
65545;SDS011;52177;55.968;37.498;2023-05-10T00:49:20;20.88;;;11.52;;
65545;SDS011;52177;55.968;37.498;2023-05-10T00:49:51;20.95;;;11.20;;
65545;SDS011;52177;55.968;37.498;2023-05-10T00:50:22;15.55;;;10.60;;
65545;SDS011;52177;55.968;37.498;2023-05-10T00:50:53;15.57;;;10.88;;
65545;SDS011;52177;55.968;37.498;2023-05-10T00:51:23;18.80;;;10.65;;
65545;SDS011;52177;55.968;37.498;2023-05-10T00:51:54;19.45;;;10.93;;
65545;SDS011;52177;55.968;37.498;2023-05-10T00:52:25;18.83;;;10.68;;
65545;SDS011;52177;55.968;37.498;2023-05-10T00:52:56;17.45;;;10.48;;
65545;SDS011;52177;55.968;37.498;2023-05-10T00:53:27;19.73;;;12.00;;
65545;SDS011;52177;55.968;37.498;2023-05-10T00:54:00;18.15;;;10.60;;
65545;SDS011;52177;55.968;37.498;2023-05-10T00:54:32;17.90;;;10.90;;
65545;SDS011;52177;55.968;37.498;2023-05-10T00:55:02;15.77;;;11.10;;
65545;SDS011;52177;55.968;37.498;2023-05-10T00:55:33;17.08;;;10.65;;
65545;SDS011;52177;55.968;37.498;2023-05-10T00:56:04;18.52;;;10.43;;
65545;SDS011;52177;55.968;37.498;2023-05-10T00:56:35;13.98;;;10.52;;
65545;SDS011;52177;55.968;37.498;2023-05-10T00:57:06;18.52;;;10.48;;
65545;SDS011;52177;55.968;37.498;2023-05-10T00:57:36;16.02;;;10.35;;
65545;SDS011;52177;55.968;37.498;2023-05-10T00:58:07;16.70;;;10.98;;
65545;SDS011;52177;55.968;37.498;2023-05-10T00:58:37;16.65;;;10.35;;
65545;SDS011;52177;55.968;37.498;2023-05-10T00:59:08;18.90;;;11.27;;
65545;SDS011;52177;55.968;37.498;2023-05-10T00:59:39;19.67;;;10.77;;
65545;SDS011;52177;55.968;37.498;2023-05-10T01:00:09;19.92;;;10.93;;
65545;SDS011;52177;55.968;37.498;2023-05-10T01:00:41;16.38;;;11.82;;
65545;SDS011;52177;55.968;37.498;2023-05-10T01:01:13;17.02;;;10.68;;
65545;SDS011;52177;55.968;37.498;2023-05-10T01:01:44;15.80;;;10.88;;
65545;SDS011;52177;55.968;37.498;2023-05-10T01:02:15;17.02;;;10.10;;
65545;SDS011;52177;55.968;37.498;2023-05-10T01:02:45;17.83;;;10.68;;
65545;SDS011;52177;55.968;37.498;2023-05-10T01:03:16;17.92;;;10.90;;
65545;SDS011;52177;55.968;37.498;2023-05-10T01:03:47;18.67;;;10.52;;
65545;SDS011;52177;55.968;37.498;2023-05-10T01:04:17;18.52;;;11.10;;
65545;SDS011;52177;55.968;37.498;2023-05-10T01:04:49;16.65;;;10.23;;
65545;SDS011;52177;55.968;37.498;2023-05-10T01:05:21;21.15;;;11.10;;
65545;SDS011;52177;55.968;37.498;2023-05-10T01:05:52;15.80;;;10.32;;
65545;SDS011;52177;55.968;37.498;2023-05-10T01:06:22;18.58;;;11.35;;
65545;SDS011;52177;55.968;37.498;2023-05-10T01:06:52;14.82;;;10.23;;
65545;SDS011;52177;55.968;37.498;2023-05-10T01:07:23;16.60;;;11.27;;
65545;SDS011;52177;55.968;37.498;2023-05-10T01:07:53;16.98;;;10.50;;
65545;SDS011;52177;55.968;37.498;2023-05-10T01:08:24;11.77;;;9.45;;
65545;SDS011;52177;55.968;37.498;2023-05-10T01:08:55;17.23;;;11.30;;
65545;SDS011;52177;55.968;37.498;2023-05-10T01:09:26;19.05;;;10.68;;
65545;SDS011;52177;55.968;37.498;2023-05-10T01:09:57;13.13;;;10.35;;
65545;SDS011;52177;55.968;37.498;2023-05-10T01:10:28;14.75;;;10.73;;
65545;SDS011;52177;55.968;37.498;2023-05-10T01:10:59;16.63;;;10.75;;
65545;SDS011;52177;55.968;37.498;2023-05-10T01:11:29;17.10;;;10.52;;
65545;SDS011;52177;55.968;37.498;2023-05-10T01:12:00;16.83;;;10.48;;
65545;SDS011;52177;55.968;37.498;2023-05-10T01:12:32;16.08;;;10.57;;
65545;SDS011;52177;55.968;37.498;2023-05-10T01:13:03;15.98;;;10.05;;
65545;SDS011;52177;55.968;37.498;2023-05-10T01:13:35;18.40;;;10.70;;
65545;SDS011;52177;55.968;37.498;2023-05-10T01:14:07;20.05;;;10.48;;
65545;SDS011;52177;55.968;37.498;2023-05-10T01:14:38;17.65;;;11.07;;
65545;SDS011;52177;55.968;37.498;2023-05-10T01:15:09;15.10;;;9.75;;
65545;SDS011;52177;55.968;37.498;2023-05-10T01:15:41;15.00;;;9.82;;
65545;SDS011;52177;55.968;37.498;2023-05-10T01:16:12;16.05;;;10.52;;
65545;SDS011;52177;55.968;37.498;2023-05-10T01:16:43;16.92;;;10.27;;
65545;SDS011;52177;55.968;37.498;2023-05-10T01:17:15;15.65;;;10.02;;
65545;SDS011;52177;55.968;37.498;2023-05-10T01:17:46;16.65;;;10.25;;
65545;SDS011;52177;55.968;37.498;2023-05-10T01:18:17;20.48;;;10.80;;
65545;SDS011;52177;55.968;37.498;2023-05-10T01:18:50;19.50;;;10.60;;
65545;SDS011;52177;55.968;37.498;2023-05-10T01:19:51;17.55;;;10.35;;
65545;SDS011;52177;55.968;37.498;2023-05-10T01:20:22;18.95;;;9.68;;
65545;SDS011;52177;55.968;37.498;2023-05-10T01:20:57;18.10;;;10.35;;
65545;SDS011;52177;55.968;37.498;2023-05-10T01:21:58;17.50;;;9.77;;
65545;SDS011;52177;55.968;37.498;2023-05-10T01:23:59;16.42;;;8.95;;
65545;SDS011;52177;55.968;37.498;2023-05-10T01:29:25;17.23;;;9.07;;
65545;SDS011;52177;55.968;37.498;2023-05-10T01:30:42;18.42;;;9.52;;
65545;SDS011;52177;55.968;37.498;2023-05-10T01:33:30;17.23;;;9.88;;
65545;SDS011;52177;55.968;37.498;2023-05-10T01:34:12;14.40;;;9.15;;
65545;SDS011;52177;55.968;37.498;2023-05-10T01:36:19;17.25;;;9.05;;
65545;SDS011;52177;55.968;37.498;2023-05-10T01:37:02;18.65;;;10.00;;
65545;SDS011;52177;55.968;37.498;2023-05-10T01:41:42;14.27;;;8.20;;
65545;SDS011;52177;55.968;37.498;2023-05-10T01:42:29;14.80;;;9.05;;
65545;SDS011;52177;55.968;37.498;2023-05-10T01:43:08;13.70;;;8.93;;
65545;SDS011;52177;55.968;37.498;2023-05-10T01:43:48;12.50;;;8.27;;
65545;SDS011;52177;55.968;37.498;2023-05-10T01:44:32;13.18;;;8.40;;
65545;SDS011;52177;55.968;37.498;2023-05-10T01:45:11;13.35;;;8.38;;
65545;SDS011;52177;55.968;37.498;2023-05-10T01:46:40;16.80;;;8.35;;
65545;SDS011;52177;55.968;37.498;2023-05-10T01:47:49;12.25;;;8.00;;
65545;SDS011;52177;55.968;37.498;2023-05-10T01:48:24;15.10;;;8.05;;
65545;SDS011;52177;55.968;37.498;2023-05-10T01:48:58;14.70;;;8.73;;
65545;SDS011;52177;55.968;37.498;2023-05-10T01:49:34;13.52;;;8.23;;
65545;SDS011;52177;55.968;37.498;2023-05-10T01:50:15;11.75;;;8.50;;
65545;SDS011;52177;55.968;37.498;2023-05-10T01:50:49;12.90;;;8.15;;
65545;SDS011;52177;55.968;37.498;2023-05-10T01:51:24;12.38;;;7.75;;
65545;SDS011;52177;55.968;37.498;2023-05-10T01:51:59;12.57;;;8.43;;
65545;SDS011;52177;55.968;37.498;2023-05-10T01:52:36;11.50;;;8.00;;
65545;SDS011;52177;55.968;37.498;2023-05-10T01:53:11;17.70;;;8.68;;
65545;SDS011;52177;55.968;37.498;2023-05-10T01:53:43;12.88;;;8.85;;
65545;SDS011;52177;55.968;37.498;2023-05-10T01:54:16;11.90;;;7.93;;
65545;SDS011;52177;55.968;37.498;2023-05-10T01:54:50;14.30;;;8.30;;
65545;SDS011;52177;55.968;37.498;2023-05-10T01:55:29;12.80;;;8.25;;
65545;SDS011;52177;55.968;37.498;2023-05-10T01:56:02;11.65;;;7.85;;
65545;SDS011;52177;55.968;37.498;2023-05-10T01:56:33;10.80;;;7.65;;
65545;SDS011;52177;55.968;37.498;2023-05-10T01:57:05;12.13;;;7.45;;
65545;SDS011;52177;55.968;37.498;2023-05-10T01:57:39;13.20;;;7.70;;
65545;SDS011;52177;55.968;37.498;2023-05-10T01:58:17;15.45;;;7.72;;
65545;SDS011;52177;55.968;37.498;2023-05-10T01:58:51;11.38;;;7.55;;
65545;SDS011;52177;55.968;37.498;2023-05-10T01:59:22;10.55;;;7.35;;
65545;SDS011;52177;55.968;37.498;2023-05-10T01:59:59;14.13;;;7.55;;
65545;SDS011;52177;55.968;37.498;2023-05-10T02:00:33;23.77;;;8.00;;
65545;SDS011;52177;55.968;37.498;2023-05-10T02:01:05;11.68;;;7.18;;
65545;SDS011;52177;55.968;37.498;2023-05-10T02:01:37;10.48;;;6.95;;
65545;SDS011;52177;55.968;37.498;2023-05-10T02:02:08;10.10;;;6.82;;
65545;SDS011;52177;55.968;37.498;2023-05-10T02:02:42;9.15;;;6.53;;
65545;SDS011;52177;55.968;37.498;2023-05-10T02:03:17;14.90;;;7.20;;
65545;SDS011;52177;55.968;37.498;2023-05-10T02:03:51;13.77;;;7.13;;
65545;SDS011;52177;55.968;37.498;2023-05-10T02:04:21;11.43;;;6.82;;
65545;SDS011;52177;55.968;37.498;2023-05-10T02:04:54;12.45;;;7.30;;
65545;SDS011;52177;55.968;37.498;2023-05-10T02:05:27;11.45;;;6.25;;
65545;SDS011;52177;55.968;37.498;2023-05-10T02:06:00;11.52;;;6.68;;
65545;SDS011;52177;55.968;37.498;2023-05-10T02:06:32;9.85;;;6.43;;
65545;SDS011;52177;55.968;37.498;2023-05-10T02:07:04;9.52;;;6.72;;
65545;SDS011;52177;55.968;37.498;2023-05-10T02:07:36;12.88;;;6.63;;
65545;SDS011;52177;55.968;37.498;2023-05-10T02:08:07;9.82;;;6.50;;
65545;SDS011;52177;55.968;37.498;2023-05-10T02:08:38;11.48;;;7.32;;
65545;SDS011;52177;55.968;37.498;2023-05-10T02:09:10;8.68;;;7.00;;
65545;SDS011;52177;55.968;37.498;2023-05-10T02:09:44;9.00;;;6.80;;
65545;SDS011;52177;55.968;37.498;2023-05-10T02:10:19;12.40;;;7.20;;
65545;SDS011;52177;55.968;37.498;2023-05-10T02:10:51;10.40;;;6.70;;
65545;SDS011;52177;55.968;37.498;2023-05-10T02:11:23;11.07;;;6.47;;
65545;SDS011;52177;55.968;37.498;2023-05-10T02:11:55;11.43;;;6.80;;
65545;SDS011;52177;55.968;37.498;2023-05-10T02:12:29;9.05;;;6.72;;
65545;SDS011;52177;55.968;37.498;2023-05-10T02:13:02;10.20;;;7.00;;
65545;SDS011;52177;55.968;37.498;2023-05-10T02:13:34;9.50;;;6.85;;
65545;SDS011;52177;55.968;37.498;2023-05-10T02:14:09;10.60;;;6.75;;
65545;SDS011;52177;55.968;37.498;2023-05-10T02:14:41;10.65;;;6.68;;
65545;SDS011;52177;55.968;37.498;2023-05-10T02:15:13;9.32;;;6.75;;
65545;SDS011;52177;55.968;37.498;2023-05-10T02:15:48;10.15;;;6.75;;
65545;SDS011;52177;55.968;37.498;2023-05-10T02:16:20;10.23;;;7.00;;
65545;SDS011;52177;55.968;37.498;2023-05-10T02:16:55;8.98;;;7.07;;
65545;SDS011;52177;55.968;37.498;2023-05-10T02:17:26;9.65;;;6.18;;
65545;SDS011;52177;55.968;37.498;2023-05-10T02:17:58;12.55;;;6.65;;
65545;SDS011;52177;55.968;37.498;2023-05-10T02:18:32;10.27;;;7.07;;
65545;SDS011;52177;55.968;37.498;2023-05-10T02:19:05;13.27;;;7.55;;
65545;SDS011;52177;55.968;37.498;2023-05-10T02:19:39;13.32;;;7.00;;
65545;SDS011;52177;55.968;37.498;2023-05-10T02:20:11;8.65;;;6.47;;
65545;SDS011;52177;55.968;37.498;2023-05-10T02:20:44;14.73;;;7.15;;
65545;SDS011;52177;55.968;37.498;2023-05-10T02:21:16;8.68;;;6.82;;
65545;SDS011;52177;55.968;37.498;2023-05-10T02:21:47;10.77;;;6.93;;
65545;SDS011;52177;55.968;37.498;2023-05-10T02:22:21;8.88;;;6.70;;
65545;SDS011;52177;55.968;37.498;2023-05-10T02:22:54;14.20;;;6.60;;
65545;SDS011;52177;55.968;37.498;2023-05-10T02:23:26;11.38;;;6.93;;
65545;SDS011;52177;55.968;37.498;2023-05-10T02:23:58;14.10;;;7.63;;
65545;SDS011;52177;55.968;37.498;2023-05-10T02:24:32;10.98;;;7.03;;
65545;SDS011;52177;55.968;37.498;2023-05-10T02:25:04;10.52;;;6.72;;
65545;SDS011;52177;55.968;37.498;2023-05-10T02:25:36;12.07;;;6.90;;
65545;SDS011;52177;55.968;37.498;2023-05-10T02:26:08;12.60;;;6.63;;
65545;SDS011;52177;55.968;37.498;2023-05-10T02:26:41;10.63;;;6.68;;
65545;SDS011;52177;55.968;37.498;2023-05-10T02:27:13;9.82;;;6.20;;
65545;SDS011;52177;55.968;37.498;2023-05-10T02:27:45;10.20;;;6.47;;
65545;SDS011;52177;55.968;37.498;2023-05-10T02:28:17;11.52;;;6.35;;
65545;SDS011;52177;55.968;37.498;2023-05-10T02:28:48;14.30;;;6.72;;
65545;SDS011;52177;55.968;37.498;2023-05-10T02:29:19;8.68;;;6.32;;
65545;SDS011;52177;55.968;37.498;2023-05-10T02:29:50;11.32;;;7.13;;
65545;SDS011;52177;55.968;37.498;2023-05-10T02:30:22;10.10;;;7.10;;
65545;SDS011;52177;55.968;37.498;2023-05-10T02:30:53;10.68;;;6.32;;
65545;SDS011;52177;55.968;37.498;2023-05-10T02:31:25;10.45;;;6.65;;
65545;SDS011;52177;55.968;37.498;2023-05-10T02:31:56;8.68;;;6.20;;
65545;SDS011;52177;55.968;37.498;2023-05-10T02:32:28;10.38;;;6.32;;
65545;SDS011;52177;55.968;37.498;2023-05-10T02:33:00;8.75;;;6.28;;
65545;SDS011;52177;55.968;37.498;2023-05-10T02:33:34;10.98;;;6.72;;
65545;SDS011;52177;55.968;37.498;2023-05-10T02:34:05;7.97;;;6.50;;
65545;SDS011;52177;55.968;37.498;2023-05-10T02:34:37;7.75;;;6.40;;
65545;SDS011;52177;55.968;37.498;2023-05-10T02:35:08;8.65;;;6.18;;
65545;SDS011;52177;55.968;37.498;2023-05-10T02:35:40;8.98;;;6.10;;
65545;SDS011;52177;55.968;37.498;2023-05-10T02:36:11;9.45;;;6.28;;
65545;SDS011;52177;55.968;37.498;2023-05-10T02:36:44;8.73;;;6.18;;
65545;SDS011;52177;55.968;37.498;2023-05-10T02:37:14;10.82;;;6.10;;
65545;SDS011;52177;55.968;37.498;2023-05-10T02:37:48;11.80;;;7.38;;
65545;SDS011;52177;55.968;37.498;2023-05-10T02:38:19;9.00;;;6.45;;
65545;SDS011;52177;55.968;37.498;2023-05-10T02:38:51;10.75;;;7.10;;
65545;SDS011;52177;55.968;37.498;2023-05-10T02:39:22;10.02;;;6.15;;
65545;SDS011;52177;55.968;37.498;2023-05-10T02:39:54;10.32;;;6.30;;
65545;SDS011;52177;55.968;37.498;2023-05-10T02:40:26;9.93;;;6.68;;
65545;SDS011;52177;55.968;37.498;2023-05-10T02:40:57;8.40;;;5.78;;
65545;SDS011;52177;55.968;37.498;2023-05-10T02:41:30;11.02;;;6.80;;
65545;SDS011;52177;55.968;37.498;2023-05-10T02:42:02;13.05;;;6.80;;
65545;SDS011;52177;55.968;37.498;2023-05-10T02:42:35;9.70;;;6.95;;
65545;SDS011;52177;55.968;37.498;2023-05-10T02:43:07;15.15;;;6.70;;
65545;SDS011;52177;55.968;37.498;2023-05-10T02:43:41;9.95;;;6.57;;
65545;SDS011;52177;55.968;37.498;2023-05-10T02:44:14;8.88;;;6.15;;
65545;SDS011;52177;55.968;37.498;2023-05-10T02:44:47;8.63;;;6.35;;
65545;SDS011;52177;55.968;37.498;2023-05-10T02:45:21;9.23;;;6.07;;
65545;SDS011;52177;55.968;37.498;2023-05-10T02:45:56;7.90;;;6.40;;
65545;SDS011;52177;55.968;37.498;2023-05-10T02:46:27;10.15;;;6.20;;
65545;SDS011;52177;55.968;37.498;2023-05-10T02:46:57;10.63;;;6.28;;
65545;SDS011;52177;55.968;37.498;2023-05-10T02:47:28;11.75;;;6.78;;
65545;SDS011;52177;55.968;37.498;2023-05-10T02:47:59;12.15;;;6.75;;
65545;SDS011;52177;55.968;37.498;2023-05-10T02:48:30;11.70;;;6.60;;
65545;SDS011;52177;55.968;37.498;2023-05-10T02:49:01;11.32;;;6.10;;
65545;SDS011;52177;55.968;37.498;2023-05-10T02:49:31;10.80;;;6.90;;
65545;SDS011;52177;55.968;37.498;2023-05-10T02:50:02;12.57;;;6.47;;
65545;SDS011;52177;55.968;37.498;2023-05-10T02:50:33;11.02;;;6.22;;
65545;SDS011;52177;55.968;37.498;2023-05-10T02:51:05;9.73;;;6.30;;
65545;SDS011;52177;55.968;37.498;2023-05-10T02:51:40;9.80;;;6.20;;
65545;SDS011;52177;55.968;37.498;2023-05-10T02:52:15;9.95;;;5.80;;
65545;SDS011;52177;55.968;37.498;2023-05-10T02:52:51;9.68;;;6.15;;
65545;SDS011;52177;55.968;37.498;2023-05-10T02:53:30;9.23;;;5.82;;
65545;SDS011;52177;55.968;37.498;2023-05-10T02:54:24;10.57;;;5.72;;
65545;SDS011;52177;55.968;37.498;2023-05-10T02:55:00;8.82;;;6.13;;
65545;SDS011;52177;55.968;37.498;2023-05-10T02:55:38;10.55;;;6.32;;
65545;SDS011;52177;55.968;37.498;2023-05-10T02:56:15;12.45;;;6.30;;
65545;SDS011;52177;55.968;37.498;2023-05-10T02:56:54;9.18;;;5.47;;
65545;SDS011;52177;55.968;37.498;2023-05-10T02:57:28;9.32;;;6.15;;
65545;SDS011;52177;55.968;37.498;2023-05-10T02:58:03;10.32;;;6.35;;
65545;SDS011;52177;55.968;37.498;2023-05-10T02:58:34;9.15;;;5.78;;
65545;SDS011;52177;55.968;37.498;2023-05-10T02:59:04;9.23;;;6.50;;
65545;SDS011;52177;55.968;37.498;2023-05-10T02:59:35;10.88;;;6.45;;
65545;SDS011;52177;55.968;37.498;2023-05-10T03:00:05;7.78;;;6.43;;
65545;SDS011;52177;55.968;37.498;2023-05-10T03:00:36;12.27;;;6.75;;
65545;SDS011;52177;55.968;37.498;2023-05-10T03:01:07;11.35;;;6.03;;
65545;SDS011;52177;55.968;37.498;2023-05-10T03:01:37;8.95;;;6.03;;
65545;SDS011;52177;55.968;37.498;2023-05-10T03:02:08;10.43;;;5.88;;
65545;SDS011;52177;55.968;37.498;2023-05-10T03:02:40;8.82;;;5.72;;
65545;SDS011;52177;55.968;37.498;2023-05-10T03:03:11;10.45;;;5.70;;
65545;SDS011;52177;55.968;37.498;2023-05-10T03:03:41;11.57;;;6.13;;
65545;SDS011;52177;55.968;37.498;2023-05-10T03:04:12;8.77;;;5.65;;
65545;SDS011;52177;55.968;37.498;2023-05-10T03:04:43;8.23;;;5.90;;
65545;SDS011;52177;55.968;37.498;2023-05-10T03:05:13;10.27;;;5.88;;
65545;SDS011;52177;55.968;37.498;2023-05-10T03:05:43;10.10;;;6.25;;
65545;SDS011;52177;55.968;37.498;2023-05-10T03:06:14;8.00;;;6.30;;
65545;SDS011;52177;55.968;37.498;2023-05-10T03:06:44;10.13;;;6.80;;
65545;SDS011;52177;55.968;37.498;2023-05-10T03:07:15;8.68;;;5.78;;
65545;SDS011;52177;55.968;37.498;2023-05-10T03:07:46;9.10;;;5.68;;
65545;SDS011;52177;55.968;37.498;2023-05-10T03:08:17;13.73;;;6.38;;
65545;SDS011;52177;55.968;37.498;2023-05-10T03:08:47;10.20;;;6.30;;
65545;SDS011;52177;55.968;37.498;2023-05-10T03:09:18;8.02;;;5.97;;
65545;SDS011;52177;55.968;37.498;2023-05-10T03:09:49;10.18;;;6.47;;
65545;SDS011;52177;55.968;37.498;2023-05-10T03:10:21;9.07;;;6.05;;
65545;SDS011;52177;55.968;37.498;2023-05-10T03:12:09;8.55;;;6.32;;
65545;SDS011;52177;55.968;37.498;2023-05-10T03:15:46;8.90;;;5.80;;
65545;SDS011;52177;55.968;37.498;2023-05-10T03:16:28;8.00;;;5.80;;
65545;SDS011;52177;55.968;37.498;2023-05-10T03:18:59;12.75;;;5.82;;
65545;SDS011;52177;55.968;37.498;2023-05-10T03:19:41;13.48;;;5.50;;
65545;SDS011;52177;55.968;37.498;2023-05-10T03:20:24;7.40;;;5.47;;
65545;SDS011;52177;55.968;37.498;2023-05-10T03:20:59;12.70;;;6.00;;
65545;SDS011;52177;55.968;37.498;2023-05-10T03:21:35;14.65;;;6.28;;
65545;SDS011;52177;55.968;37.498;2023-05-10T03:22:08;12.05;;;6.00;;
65545;SDS011;52177;55.968;37.498;2023-05-10T03:22:41;8.15;;;5.32;;
65545;SDS011;52177;55.968;37.498;2023-05-10T03:24:08;10.30;;;5.28;;
65545;SDS011;52177;55.968;37.498;2023-05-10T03:24:42;8.45;;;5.20;;
65545;SDS011;52177;55.968;37.498;2023-05-10T03:25:15;15.15;;;5.90;;
65545;SDS011;52177;55.968;37.498;2023-05-10T03:25:48;12.57;;;6.35;;
65545;SDS011;52177;55.968;37.498;2023-05-10T03:26:22;9.70;;;5.47;;
65545;SDS011;52177;55.968;37.498;2023-05-10T03:26:56;12.55;;;5.43;;
65545;SDS011;52177;55.968;37.498;2023-05-10T03:27:32;7.95;;;5.72;;
65545;SDS011;52177;55.968;37.498;2023-05-10T03:28:05;8.10;;;5.22;;
65545;SDS011;52177;55.968;37.498;2023-05-10T03:28:36;9.55;;;5.57;;
65545;SDS011;52177;55.968;37.498;2023-05-10T03:29:06;13.35;;;5.75;;
65545;SDS011;52177;55.968;37.498;2023-05-10T03:29:38;9.60;;;5.50;;
65545;SDS011;52177;55.968;37.498;2023-05-10T03:30:10;8.18;;;5.55;;
65545;SDS011;52177;55.968;37.498;2023-05-10T03:30:42;8.48;;;5.47;;
65545;SDS011;52177;55.968;37.498;2023-05-10T03:31:13;12.25;;;5.80;;
65545;SDS011;52177;55.968;37.498;2023-05-10T03:31:44;7.75;;;5.35;;